Time;durP1;ratioP1;P1;durP2;ratioP2;P2;SDS_P1;SDS_P2;PMS_P1;PMS_P2;Temp;Humidity;BMP_temperature;BMP_pressure;BME280_temperature;BME280_humidity;BME280_pressure;Samples;Min_cycle;Max_cycle;Signal;HPM_P1;HPM_P2
2021/11/02 00:02:01;;;;;;;1.80;1.67;;;8.70;99.90;;;;;;5011682;28;20835;-58
2021/11/02 00:04:28;;;;;;;2.17;1.10;;;8.70;99.90;;;;;;5012084;28;20494;-57
2021/11/02 00:06:55;;;;;;;1.23;1.10;;;8.80;99.90;;;;;;4994796;28;20507;-58
2021/11/02 00:09:24;;;;;;;3.27;1.07;;;8.90;99.90;;;;;;4994670;28;20443;-58
2021/11/02 00:11:53;;;;;;;4.40;0.93;;;8.90;99.90;;;;;;5011284;28;20456;-57
2021/11/02 00:14:22;;;;;;;1.00;0.90;;;8.90;99.90;;;;;;5013286;28;20488;-57
2021/11/02 00:16:56;;;;;;;1.23;1.10;;;8.90;99.90;;;;;;5011578;28;20463;-58
2021/11/02 00:19:24;;;;;;;1.80;0.97;;;8.80;99.90;;;;;;5013311;28;20423;-58
2021/11/02 00:21:53;;;;;;;1.67;0.80;;;8.70;99.90;;;;;;5015129;28;20463;-57
2021/11/02 00:24:39;;;;;;;3.53;1.30;;;8.60;99.90;;;;;;5016086;28;20461;-58
2021/11/02 00:27:06;;;;;;;0.80;0.73;;;8.50;99.90;;;;;;5015304;28;20464;-58
2021/11/02 00:29:33;;;;;;;3.70;1.40;;;8.50;99.90;;;;;;5007157;28;20499;-58
2021/11/02 00:32:00;;;;;;;1.93;1.10;;;8.40;99.90;;;;;;5015283;28;20982;-58
2021/11/02 00:34:26;;;;;;;2.97;1.07;;;8.30;99.90;;;;;;5015709;28;20974;-58
2021/11/02 00:36:53;;;;;;;5.00;1.10;;;8.20;99.90;;;;;;5013450;28;20482;-58
2021/11/02 00:39:20;;;;;;;1.73;0.87;;;8.20;99.90;;;;;;4998242;28;20429;-58
2021/11/02 00:41:49;;;;;;;3.50;0.73;;;8.20;99.90;;;;;;4997757;28;20483;-58
2021/11/02 00:44:17;;;;;;;1.30;1.00;;;8.20;99.90;;;;;;5015737;28;20440;-58
2021/11/02 00:46:44;;;;;;;1.57;1.20;;;8.30;99.90;;;;;;5039565;28;20212;-58
2021/11/02 00:49:17;;;;;;;2.83;1.38;;;8.30;99.90;;;;;;5055255;28;20434;-58
2021/11/02 00:51:48;;;;;;;2.07;1.20;;;8.20;99.90;;;;;;5014729;28;20234;-58
2021/11/02 00:54:15;;;;;;;1.20;0.80;;;8.10;99.90;;;;;;5015292;28;20481;-58
2021/11/02 00:56:42;;;;;;;2.15;1.30;;;8.00;99.90;;;;;;5014660;28;20224;-58
2021/11/02 00:59:10;;;;;;;2.20;1.30;;;8.00;99.90;;;;;;4997850;28;20196;-58
2021/11/02 01:01:38;;;;;;;2.17;1.30;;;7.90;99.90;;;;;;5013342;28;20239;-58
2021/11/02 01:04:06;;;;;;;1.90;1.05;;;7.80;99.90;;;;;;5015175;28;20220;-58
2021/11/02 01:06:35;;;;;;;2.28;1.42;;;7.80;99.90;;;;;;4999837;28;20310;-58
2021/11/02 01:09:05;;;;;;;2.50;1.20;;;7.80;99.90;;;;;;5015303;28;20558;-58
2021/11/02 01:11:33;;;;;;;2.03;1.20;;;;;;;;;;5014409;28;20700;-58
2021/11/02 01:13:59;;;;;;;1.88;1.20;;;7.80;99.90;;;;;;4997679;28;20214;-58
2021/11/02 01:16:27;;;;;;;3.58;1.73;;;7.70;99.90;;;;;;5014357;28;20308;-58
2021/11/02 01:18:55;;;;;;;4.87;1.60;;;7.70;99.90;;;;;;4997535;28;20189;-58
2021/11/02 01:21:22;;;;;;;5.55;1.95;;;7.60;99.90;;;;;;5014233;28;20463;-58
2021/11/02 01:23:50;;;;;;;2.50;2.05;;;7.50;99.90;;;;;;4997510;28;20196;-58
2021/11/02 01:26:17;;;;;;;1.88;1.58;;;7.50;99.90;;;;;;4996620;28;20310;-58
2021/11/02 01:28:45;;;;;;;3.28;1.70;;;7.40;99.90;;;;;;5014890;28;20193;-58
2021/11/02 01:31:13;;;;;;;1.38;1.20;;;7.40;99.90;;;;;;4995520;28;20253;-58
2021/11/02 01:33:40;;;;;;;3.75;2.15;;;7.40;99.90;;;;;;5014798;28;20598;-58
2021/11/02 01:36:10;;;;;;;3.78;1.75;;;7.40;99.90;;;;;;5002651;28;20214;-58
2021/11/02 01:38:37;;;;;;;3.28;2.20;;;7.40;99.90;;;;;;4997169;28;20213;-58
2021/11/02 01:41:14;;;;;;;3.25;2.03;;;7.30;99.90;;;;;;5014091;28;20709;-58
2021/11/02 01:43:42;;;;;;;5.47;2.53;;;7.30;99.90;;;;;;5014750;28;20201;-58
2021/11/02 01:46:35;;;;;;;3.53;2.80;;;7.30;99.90;;;;;;5011986;28;20274;-58
2021/11/02 01:49:05;;;;;;;4.30;3.08;;;7.20;99.90;;;;;;5055122;28;20580;-58
2021/11/02 01:51:35;;;;;;;4.70;2.65;;;7.10;99.90;;;;;;5019150;28;20301;-58
2021/11/02 01:54:05;;;;;;;3.22;1.75;;;7.10;99.90;;;;;;5016352;28;20741;-58
2021/11/02 01:56:33;;;;;;;3.55;2.00;;;7.10;99.90;;;;;;5033535;28;20271;-58
2021/11/02 01:59:04;;;;;;;2.63;2.00;;;7.10;99.90;;;;;;5013112;28;20193;-58
2021/11/02 02:01:56;;;;;;;2.10;1.77;;;7.10;99.90;;;;;;5013722;28;20213;-58
2021/11/02 02:04:42;;;;;;;3.10;2.25;;;7.00;99.90;;;;;;5016176;28;20564;-58
2021/11/02 02:07:23;;;;;;;2.55;1.92;;;7.00;99.90;;;;;;4995908;28;20226;-58
2021/11/02 02:10:05;;;;;;;2.58;2.38;;;7.10;99.90;;;;;;5014149;28;20617;-58
2021/11/02 02:12:43;;;;;;;4.60;2.40;;;7.20;99.90;;;;;;4996067;28;20582;-58
2021/11/02 02:15:23;;;;;;;3.03;2.22;;;7.20;99.90;;;;;;4996227;28;20224;-58
2021/11/02 02:18:10;;;;;;;2.10;1.90;;;7.10;99.90;;;;;;4996001;28;20220;-58
2021/11/02 02:20:58;;;;;;;3.40;1.92;;;7.10;99.90;;;;;;5013135;28;20222;-58
2021/11/02 02:23:56;;;;;;;2.85;2.55;;;7.00;99.90;;;;;;4996288;28;20188;-58
2021/11/02 02:26:38;;;;;;;3.00;2.10;;;7.00;99.90;;;;;;5011709;28;20938;-58
2021/11/02 02:29:09;;;;;;;7.22;4.45;;;7.00;99.90;;;;;;5013938;28;20325;-58
2021/11/02 02:31:38;;;;;;;4.38;3.97;;;;;;;;;;5011855;28;20218;-58
2021/11/02 02:34:11;;;;;;;10.15;5.45;;;6.90;99.90;;;;;;5013434;28;20195;-58
2021/11/02 02:36:46;;;;;;;6.00;4.45;;;6.90;99.90;;;;;;5011760;28;20241;-58
2021/11/02 02:39:15;;;;;;;8.20;5.40;;;7.10;99.90;;;;;;5012389;28;20739;-58
2021/11/02 02:42:16;;;;;;;10.18;7.32;;;7.20;99.90;;;;;;5005842;28;20233;-58
2021/11/02 02:44:49;;;;;;;10.52;5.85;;;7.10;99.90;;;;;;4980225;28;20257;-58
2021/11/02 02:47:19;;;;;;;9.95;6.78;;;7.20;99.90;;;;;;5028759;28;20275;-58
2021/11/02 02:49:49;;;;;;;8.52;5.35;;;7.10;99.90;;;;;;5030305;28;20276;-58
2021/11/02 02:52:17;;;;;;;3.83;3.25;;;7.00;99.90;;;;;;4995236;28;20229;-58
2021/11/02 02:54:51;;;;;;;6.60;3.88;;;7.00;99.90;;;;;;5012044;28;20308;-58
2021/11/02 02:57:20;;;;;;;3.63;2.22;;;7.00;99.90;;;;;;5011071;28;20272;-60
2021/11/02 02:59:49;;;;;;;4.40;2.58;;;7.00;99.90;;;;;;5012191;28;20314;-61
2021/11/02 03:02:18;;;;;;;2.55;1.90;;;7.10;99.90;;;;;;4995035;28;20221;-61
2021/11/02 03:04:51;;;;;;;1.50;1.30;;;7.10;99.90;;;;;;4995174;28;20296;-61
2021/11/02 03:07:19;;;;;;;3.08;2.30;;;7.00;99.90;;;;;;4994851;28;20304;-61
2021/11/02 03:09:47;;;;;;;3.47;3.00;;;7.00;99.90;;;;;;5011812;28;20234;-60
2021/11/02 03:12:23;;;;;;;4.03;2.97;;;7.00;99.90;;;;;;5011367;28;20227;-61
2021/11/02 03:15:07;;;;;;;4.30;3.28;;;7.00;99.90;;;;;;5012473;28;20268;-61
2021/11/02 03:17:46;;;;;;;4.05;2.97;;;7.00;99.90;;;;;;5011208;28;20264;-60
2021/11/02 04:24:13;;;;;;;4.10;2.05;;;7.50;99.90;;;;;;4994238;28;20192;-61
2021/11/02 04:38:17;;;;;;;6.38;2.20;;;7.70;99.90;;;;;;5010461;28;20215;-61
2021/11/02 05:10:21;;;;;;;3.22;2.28;;;7.70;99.90;;;;;;5015259;28;20660;-61
2021/11/02 05:49:07;;;;;;;3.35;2.65;;;8.00;99.90;;;;;;5036341;28;20192;-61
2021/11/02 05:59:43;;;;;;;4.38;2.60;;;8.20;99.90;;;;;;5014274;28;20667;-61
2021/11/02 06:07:28;;;;;;;4.90;2.35;;;8.20;99.90;;;;;;5013385;28;20272;-60
2021/11/02 06:30:29;;;;;;;10.02;1.90;;;8.20;99.90;;;;;;4999287;28;20196;-60
2021/11/02 06:33:06;;;;;;;3.47;1.98;;;8.30;99.90;;;;;;5014296;28;20208;-60
2021/11/02 06:36:30;;;;;;;2.75;1.10;;;8.30;99.90;;;;;;4995940;28;20233;-60
2021/11/02 06:44:26;;;;;;;2.70;1.48;;;8.40;99.90;;;;;;5013428;28;20192;-61
2021/11/02 07:18:58;;;;;;;1.95;1.17;;;8.70;99.90;;;;;;5052797;28;20196;-60
2021/11/02 07:21:34;;;;;;;2.80;1.53;;;8.70;99.90;;;;;;5020909;28;20251;-60
2021/11/02 07:24:08;;;;;;;2.60;1.53;;;8.80;99.90;;;;;;5012745;28;20459;-60
2021/11/02 08:48:26;;;;;;;2.73;1.10;;;9.50;99.90;;;;;;5015706;28;20757;-61
2021/11/02 08:50:55;;;;;;;4.50;1.10;;;9.60;99.90;;;;;;5015053;28;20518;-61
2021/11/02 08:53:24;;;;;;;1.67;1.57;;;9.60;99.90;;;;;;5015991;28;20775;-61
2021/11/02 08:55:51;;;;;;;5.70;1.60;;;9.70;99.90;;;;;;5014801;28;20480;-61
2021/11/02 08:58:22;;;;;;;3.13;0.83;;;9.70;99.90;;;;;;5015110;28;20432;-61
2021/11/02 09:00:49;;;;;;;2.20;2.00;;;9.70;99.90;;;;;;5014605;28;20571;-61
2021/11/02 09:03:21;;;;;;;1.67;1.27;;;9.70;99.90;;;;;;5015485;28;20557;-61
2021/11/02 09:05:58;;;;;;;3.17;2.70;;;9.70;99.90;;;;;;5014907;28;20457;-61
2021/11/02 09:08:28;;;;;;;2.53;2.33;;;9.70;99.90;;;;;;5019897;28;20430;-61
2021/11/02 09:11:00;;;;;;;2.50;1.67;;;9.70;99.90;;;;;;5036506;28;20461;-61
2021/11/02 09:13:33;;;;;;;1.57;1.40;;;9.80;99.90;;;;;;5046585;28;20442;-61
2021/11/02 09:16:04;;;;;;;1.17;1.07;;;9.80;99.90;;;;;;5054068;28;20500;-61
2021/11/02 09:18:31;;;;;;;2.00;1.80;;;9.80;99.90;;;;;;5042200;28;20423;-61
2021/11/02 09:20:58;;;;;;;3.70;1.30;;;9.90;99.90;;;;;;5022821;28;20449;-61
2021/11/02 09:23:28;;;;;;;2.87;1.77;;;9.90;99.90;;;;;;4998088;28;20427;-61
2021/11/02 09:25:57;;;;;;;3.90;1.50;;;9.90;99.90;;;;;;5044800;28;20992;-61
2021/11/02 09:28:25;;;;;;;2.00;1.53;;;9.90;99.90;;;;;;5034531;28;20526;-61
2021/11/02 09:30:54;;;;;;;2.47;1.23;;;10.00;99.90;;;;;;5040627;28;20463;-61
2021/11/02 09:33:21;;;;;;;2.70;1.70;;;10.10;99.90;;;;;;5054416;28;20430;-61
2021/11/02 09:36:01;;;;;;;3.33;1.40;;;10.10;99.90;;;;;;5032467;28;20468;-61
2021/11/02 09:38:41;;;;;;;5.00;1.50;;;10.10;99.90;;;;;;5025523;28;20952;-62
2021/11/02 09:41:31;;;;;;;2.90;1.70;;;10.20;99.90;;;;;;5034104;28;20494;-61
2021/11/02 09:44:02;;;;;;;1.90;1.40;;;10.20;99.90;;;;;;5044862;28;21030;-62
2021/11/02 09:46:38;;;;;;;2.10;1.60;;;10.30;99.90;;;;;;4996034;28;20511;-61
2021/11/02 09:49:35;;;;;;;2.70;1.83;;;10.20;99.90;;;;;;5014491;28;20426;-61
2021/11/02 09:52:34;;;;;;;1.60;1.50;;;10.30;99.90;;;;;;5008218;28;20462;-61
2021/11/02 09:55:35;;;;;;;2.87;1.60;;;10.40;99.90;;;;;;5053925;28;20451;-61
2021/11/02 09:58:20;;;;;;;3.47;1.97;;;10.40;99.90;;;;;;5048872;28;20806;-61
2021/11/02 10:01:04;;;;;;;1.77;1.40;;;10.50;99.90;;;;;;5033575;28;20460;-62
2021/11/02 10:04:14;;;;;;;1.63;1.20;;;10.60;99.90;;;;;;5034236;28;20481;-61
2021/11/02 10:07:38;;;;;;;4.17;1.30;;;10.60;99.90;;;;;;5015191;28;20488;-61
2021/11/02 10:10:13;;;;;;;3.07;1.83;;;10.70;99.90;;;;;;4934417;29;20435;-61
2021/11/02 10:13:05;;;;;;;2.80;1.40;;;10.80;99.90;;;;;;5015594;28;20456;-61
2021/11/02 10:16:03;;;;;;;3.17;1.70;;;11.00;99.90;;;;;;5033041;28;20446;-61
2021/11/02 10:18:49;;;;;;;2.73;1.83;;;11.10;99.90;;;;;;5019306;28;20937;-61
2021/11/02 10:21:18;;;;;;;1.00;0.90;;;11.10;99.90;;;;;;5023584;28;20520;-62
2021/11/02 10:24:03;;;;;;;0.80;0.70;;;11.20;99.90;;;;;;5013832;28;20429;-62
2021/11/02 10:27:02;;;;;;;1.40;0.97;;;11.20;99.90;;;;;;5025840;28;20455;-61
2021/11/02 10:29:29;;;;;;;1.50;1.20;;;11.30;99.90;;;;;;5017774;28;20465;-62
2021/11/02 10:32:12;;;;;;;1.03;0.93;;;11.30;99.90;;;;;;5030525;28;20500;-61
2021/11/02 10:34:41;;;;;;;1.03;0.60;;;11.50;99.90;;;;;;5051335;28;20435;-61
2021/11/02 10:37:22;;;;;;;0.70;0.47;;;11.60;99.90;;;;;;5012763;28;20485;-61
2021/11/02 10:40:08;;;;;;;1.17;0.90;;;11.50;99.90;;;;;;5013674;28;20422;-62
2021/11/02 10:43:02;;;;;;;1.50;0.67;;;11.50;99.90;;;;;;5012904;28;20520;-61
2021/11/02 10:45:30;;;;;;;1.90;0.43;;;11.50;99.90;;;;;;4994968;28;20569;-61
2021/11/02 10:48:05;;;;;;;1.20;0.87;;;11.60;99.90;;;;;;5013520;28;20791;-61
2021/11/02 10:50:37;;;;;;;1.10;0.83;;;11.60;99.90;;;;;;5012699;28;20480;-61
2021/11/02 10:53:07;;;;;;;0.70;0.60;;;11.70;99.90;;;;;;4995674;28;20945;-61
2021/11/02 10:56:07;;;;;;;1.23;0.70;;;11.70;99.90;;;;;;5012752;28;20623;-61
2021/11/02 10:58:35;;;;;;;1.00;0.60;;;11.70;99.90;;;;;;5013392;28;20438;-61
2021/11/02 11:01:07;;;;;;;1.20;0.77;;;11.90;99.90;;;;;;5012615;28;20458;-61
2021/11/02 11:03:37;;;;;;;1.00;0.90;;;11.90;99.90;;;;;;5012747;28;20805;-61
2021/11/02 11:06:10;;;;;;;0.90;0.77;;;11.80;99.90;;;;;;5012301;28;20994;-61
2021/11/02 11:08:42;;;;;;;2.03;0.83;;;11.80;99.90;;;;;;4995674;28;20434;-61
2021/11/02 11:11:12;;;;;;;1.00;0.63;;;11.70;99.90;;;;;;4978601;28;20467;-61
2021/11/02 11:13:40;;;;;;;1.70;1.20;;;11.70;99.90;;;;;;5024081;28;20469;-61
2021/11/02 11:16:12;;;;;;;2.00;0.73;;;11.60;99.90;;;;;;5031680;28;20469;-61
2021/11/02 11:18:58;;;;;;;2.10;0.87;;;11.60;99.90;;;;;;5037101;28;20948;-61
2021/11/02 11:21:27;;;;;;;1.00;0.80;;;11.60;99.90;;;;;;5026165;28;20468;-62
2021/11/02 11:24:12;;;;;;;1.30;1.10;;;11.50;99.90;;;;;;5041098;28;20855;-61
2021/11/02 11:26:47;;;;;;;0.70;0.70;;;11.50;99.90;;;;;;5021121;28;20826;-62
2021/11/02 11:29:26;;;;;;;1.03;0.80;;;11.60;99.90;;;;;;5030851;28;20539;-61
2021/11/02 11:31:58;;;;;;;1.53;0.80;;;11.60;99.90;;;;;;5025324;28;20464;-61
2021/11/02 11:34:39;;;;;;;1.03;0.93;;;11.70;99.90;;;;;;5052267;28;20576;-62
2021/11/02 11:37:06;;;;;;;1.43;0.90;;;11.90;99.90;;;;;;4994124;28;20970;-62
2021/11/02 11:39:36;;;;;;;1.17;0.80;;;12.00;99.90;;;;;;5012731;28;20472;-61
2021/11/02 11:42:04;;;;;;;2.10;0.80;;;12.00;99.90;;;;;;4994425;28;20465;-61
2021/11/02 11:44:31;;;;;;;1.10;0.67;;;12.00;99.90;;;;;;5024808;28;20460;-61
2021/11/02 11:47:08;;;;;;;0.80;0.70;;;11.90;99.90;;;;;;5013764;28;20469;-61
2021/11/02 11:49:41;;;;;;;2.97;0.50;;;11.90;99.90;;;;;;5040024;28;20457;-62
2021/11/02 11:52:09;;;;;;;2.07;0.60;;;12.00;99.90;;;;;;5012163;28;20467;-61
2021/11/02 11:54:51;;;;;;;1.03;0.70;;;12.00;99.90;;;;;;5040035;28;20447;-61
2021/11/02 11:57:32;;;;;;;0.60;0.50;;;12.00;99.90;;;;;;5051166;28;20825;-61
2021/11/02 12:00:10;;;;;;;2.60;0.83;;;12.00;99.90;;;;;;5031234;28;20445;-61
2021/11/02 12:02:58;;;;;;;2.17;1.23;;;12.10;99.90;;;;;;5037929;28;21008;-61
2021/11/02 12:05:27;;;;;;;1.10;1.00;;;12.00;99.90;;;;;;5032315;28;20503;-61
2021/11/02 12:08:20;;;;;;;1.30;0.93;;;12.00;99.90;;;;;;5032692;28;20950;-61
2021/11/02 12:10:50;;;;;;;1.33;0.80;;;11.90;99.90;;;;;;5041783;28;20454;-61
2021/11/02 12:13:18;;;;;;;1.33;0.97;;;11.90;99.90;;;;;;5032131;28;20793;-62
2021/11/02 12:18:41;;;;;;;4.10;3.10;;;11.80;99.90;;;;;;5051777;28;20467;-61
2021/11/02 12:21:18;;;;;;;1.10;0.90;;;11.80;99.90;;;;;;5024446;28;20466;-61
2021/11/02 12:23:49;;;;;;;1.13;0.77;;;11.80;99.90;;;;;;5029003;28;20821;-61
2021/11/02 12:26:17;;;;;;;3.63;0.97;;;11.70;99.90;;;;;;5031044;28;20470;-61
2021/11/02 12:28:46;;;;;;;3.00;1.07;;;11.60;99.90;;;;;;5036645;28;20486;-61
2021/11/02 12:31:19;;;;;;;0.63;0.63;;;11.50;99.90;;;;;;5011418;28;20466;-61
2021/11/02 12:33:52;;;;;;;1.13;1.03;;;11.40;99.90;;;;;;5020060;28;20423;-61
2021/11/02 12:36:24;;;;;;;3.43;0.90;;;11.40;99.90;;;;;;5015859;28;20476;-61
2021/11/02 12:39:06;;;;;;;2.50;0.83;;;11.40;99.90;;;;;;5011908;28;20474;-61
2021/11/02 12:41:33;;;;;;;2.40;1.00;;;11.40;99.90;;;;;;5048640;28;20555;-61
2021/11/02 12:44:04;;;;;;;0.60;0.50;;;11.40;99.90;;;;;;5036630;28;20445;-61
2021/11/02 12:46:32;;;;;;;0.77;0.60;;;11.30;99.90;;;;;;5016136;28;20465;-61
2021/11/02 12:49:01;;;;;;;0.90;0.80;;;11.30;99.90;;;;;;5029208;28;20434;-61
2021/11/02 12:51:33;;;;;;;0.63;0.50;;;11.10;99.90;;;;;;5033273;28;20839;-61
2021/11/02 12:54:04;;;;;;;0.93;0.77;;;11.00;99.90;;;;;;5050046;28;20493;-61
2021/11/02 12:56:35;;;;;;;0.80;0.80;;;11.00;99.90;;;;;;5028512;28;20561;-62
2021/11/02 12:59:17;;;;;;;1.33;0.60;;;10.90;99.90;;;;;;5048658;28;20436;-62
2021/11/02 13:01:46;;;;;;;1.10;0.70;;;10.80;99.90;;;;;;5044572;28;20485;-61
2021/11/02 13:04:16;;;;;;;1.13;0.50;;;10.60;99.90;;;;;;5047817;28;20864;-61
2021/11/02 13:06:48;;;;;;;0.47;0.40;;;10.50;99.90;;;;;;5025606;28;20571;-61
2021/11/02 13:09:20;;;;;;;0.80;0.50;;;10.40;99.90;;;;;;5044862;28;20431;-62
2021/11/02 13:11:59;;;;;;;1.00;0.70;;;10.30;99.90;;;;;;5051309;28;20474;-61
2021/11/02 13:15:02;;;;;;;1.50;0.67;;;10.20;99.90;;;;;;5032996;28;20477;-62
2021/11/02 13:17:40;;;;;;;1.77;0.87;;;10.20;99.90;;;;;;5024181;28;20479;-62
2021/11/02 13:20:09;;;;;;;1.03;0.60;;;10.10;99.90;;;;;;5033041;28;20475;-61
2021/11/02 13:22:36;;;;;;;1.97;1.03;;;10.10;99.90;;;;;;5050626;28;20520;-62
2021/11/02 13:25:09;;;;;;;2.03;0.97;;;10.00;99.90;;;;;;5051081;28;20443;-61
2021/11/02 13:27:40;;;;;;;2.10;1.23;;;10.10;99.90;;;;;;5053485;28;20463;-61
2021/11/02 13:30:41;;;;;;;1.23;1.10;;;10.20;99.90;;;;;;5016069;28;20456;-61
2021/11/02 13:33:18;;;;;;;1.53;1.00;;;10.30;99.90;;;;;;5014767;28;20946;-62
2021/11/02 13:35:56;;;;;;;3.17;0.87;;;10.40;99.90;;;;;;5013962;28;20468;-61
2021/11/02 13:38:31;;;;;;;1.87;1.20;;;10.60;99.90;;;;;;5014716;28;20470;-62
2021/11/02 13:41:18;;;;;;;2.20;1.33;;;10.80;99.90;;;;;;5014383;28;20551;-61
2021/11/02 13:43:52;;;;;;;1.90;1.43;;;10.90;99.90;;;;;;5014496;28;20799;-61
2021/11/02 13:46:22;;;;;;;1.23;1.03;;;11.10;99.90;;;;;;4996383;28;21017;-61
2021/11/02 13:48:49;;;;;;;2.60;1.60;;;11.10;99.90;;;;;;5028194;28;20457;-61
2021/11/02 13:51:18;;;;;;;3.10;2.07;;;11.20;99.90;;;;;;5019922;28;20480;-62
2021/11/02 13:53:46;;;;;;;3.27;2.97;;;11.30;99.90;;;;;;5014654;28;20476;-61
2021/11/02 13:56:15;;;;;;;3.30;3.00;;;11.40;99.90;;;;;;5014816;28;20467;-61
2021/11/02 13:58:43;;;;;;;4.53;4.13;;;11.50;99.90;;;;;;5036192;28;20476;-61
2021/11/02 14:01:29;;;;;;;4.80;3.50;;;11.60;99.90;;;;;;5019970;28;20461;-61
2021/11/02 14:04:17;;;;;;;5.10;4.37;;;11.50;99.90;;;;;;5014199;28;20450;-61
2021/11/02 14:06:54;;;;;;;6.63;4.43;;;11.50;99.90;;;;;;5013774;28;20986;-61
2021/11/02 14:09:27;;;;;;;6.30;4.90;;;11.40;99.90;;;;;;5014563;28;20420;-61
2021/11/02 14:11:55;;;;;;;4.93;3.63;;;11.40;99.90;;;;;;5013497;28;20456;-61
2021/11/02 14:14:36;;;;;;;3.97;3.00;;;11.30;99.90;;;;;;5014043;28;20457;-61
2021/11/02 14:17:17;;;;;;;5.50;2.80;;;11.30;99.90;;;;;;5013007;28;20473;-61
2021/11/02 14:19:51;;;;;;;2.10;1.50;;;11.20;99.90;;;;;;5014523;28;20453;-61
2021/11/02 14:22:53;;;;;;;2.63;1.67;;;11.10;99.90;;;;;;5032943;28;20464;-61
2021/11/02 14:25:23;;;;;;;0.60;0.50;;;10.90;99.90;;;;;;4952864;28;20463;-61
2021/11/02 14:27:52;;;;;;;2.37;1.40;;;10.70;99.90;;;;;;4996220;28;20815;-61
2021/11/02 14:30:39;;;;;;;3.07;0.90;;;10.70;99.90;;;;;;5013217;28;20425;-61
2021/11/02 14:33:18;;;;;;;0.77;0.43;;;10.60;99.90;;;;;;5013656;28;20850;-61
2021/11/02 14:35:50;;;;;;;2.47;1.60;;;10.40;99.90;;;;;;5013329;28;20476;-61
2021/11/02 14:38:27;;;;;;;0.70;0.40;;;10.40;99.90;;;;;;5011620;28;20480;-61
2021/11/02 14:41:28;;;;;;;0.60;0.50;;;10.40;99.90;;;;;;4998656;28;20453;-62
2021/11/02 14:44:16;;;;;;;0.97;0.40;;;10.40;99.90;;;;;;4996025;28;20433;-62
2021/11/02 14:46:44;;;;;;;1.27;0.50;;;10.40;99.90;;;;;;5032140;28;20484;-62
2021/11/02 14:49:29;;;;;;;0.97;0.67;;;10.40;99.90;;;;;;5033420;28;20425;-62
2021/11/02 14:52:01;;;;;;;2.10;0.67;;;10.50;99.90;;;;;;5014513;28;20539;-62
2021/11/02 14:54:35;;;;;;;1.00;0.90;;;10.40;99.90;;;;;;5033961;28;20814;-61
2021/11/02 14:57:18;;;;;;;0.83;0.70;;;10.30;99.90;;;;;;5040457;28;20475;-62
2021/11/02 14:59:55;;;;;;;1.73;0.73;;;10.30;99.90;;;;;;5029837;28;20451;-61
2021/11/02 15:02:37;;;;;;;1.00;0.83;;;10.30;99.90;;;;;;5012781;28;20463;-61
2021/11/02 15:05:10;;;;;;;1.27;0.90;;;10.20;99.90;;;;;;5028711;28;20466;-62
2021/11/02 15:07:45;;;;;;;1.27;0.77;;;10.10;99.90;;;;;;5012603;28;20465;-62
2021/11/02 15:10:15;;;;;;;1.33;0.80;;;10.10;99.90;;;;;;5013265;28;20519;-61
2021/11/02 15:12:44;;;;;;;1.90;0.70;;;10.00;99.90;;;;;;5012490;28;20467;-62
2021/11/02 15:15:12;;;;;;;1.17;1.07;;;10.00;99.90;;;;;;5012903;28;20840;-58
2021/11/02 15:17:39;;;;;;;1.30;1.10;;;10.00;99.90;;;;;;5011950;28;20480;-58
2021/11/02 15:20:25;;;;;;;1.30;1.20;;;10.00;99.90;;;;;;5016118;28;20476;-58
2021/11/02 15:22:55;;;;;;;2.60;1.40;;;9.90;99.90;;;;;;5048986;28;20426;-58
2021/11/02 15:25:22;;;;;;;1.40;1.30;;;9.90;99.90;;;;;;5051913;28;20530;-59
2021/11/02 15:27:58;;;;;;;0.97;0.97;;;9.90;99.90;;;;;;5038662;28;20442;-58
2021/11/02 15:30:25;;;;;;;1.30;1.03;;;9.80;99.90;;;;;;5012141;28;20432;-59
2021/11/02 15:32:52;;;;;;;1.90;1.50;;;9.80;99.90;;;;;;5012638;28;20425;-58
2021/11/02 15:35:22;;;;;;;1.80;1.03;;;9.80;99.90;;;;;;5012119;28;20460;-60
2021/11/02 15:37:55;;;;;;;1.43;1.00;;;9.60;99.90;;;;;;5012155;28;20815;-58
2021/11/02 15:40:26;;;;;;;1.57;1.33;;;9.60;99.90;;;;;;5044161;28;20423;-59
2021/11/02 15:42:55;;;;;;;2.43;2.23;;;9.60;99.90;;;;;;5044473;28;20433;-58
2021/11/02 15:45:35;;;;;;;3.10;1.83;;;9.60;99.90;;;;;;4994394;28;20556;-58
2021/11/02 15:48:08;;;;;;;1.63;1.53;;;9.50;99.90;;;;;;5012157;28;20427;-58
2021/11/02 15:50:39;;;;;;;1.27;1.17;;;9.60;99.90;;;;;;5010950;28;20935;-58
2021/11/02 15:53:09;;;;;;;1.50;1.27;;;9.50;99.90;;;;;;5012334;28;20520;-58
2021/11/02 15:55:37;;;;;;;2.20;1.50;;;9.50;99.90;;;;;;5011896;28;20784;-58
2021/11/02 15:58:06;;;;;;;2.40;2.17;;;9.50;99.90;;;;;;5011894;28;20956;-58
2021/11/02 16:00:43;;;;;;;2.73;1.33;;;9.50;99.90;;;;;;5022497;28;20441;-58
2021/11/02 16:03:14;;;;;;;2.10;1.90;;;9.50;99.90;;;;;;5012268;28;20486;-58
2021/11/02 16:05:44;;;;;;;4.30;1.90;;;9.50;99.90;;;;;;5011161;28;20457;-58
2021/11/02 16:08:21;;;;;;;3.80;2.40;;;9.50;99.90;;;;;;5012053;28;20475;-58
2021/11/02 16:10:52;;;;;;;3.77;2.17;;;9.50;99.90;;;;;;5011776;28;20532;-58
2021/11/02 16:13:26;;;;;;;2.93;2.10;;;9.50;99.90;;;;;;4994714;28;20429;-58
2021/11/02 16:15:55;;;;;;;2.00;1.40;;;9.50;99.90;;;;;;5027056;28;20458;-58
2021/11/02 16:18:33;;;;;;;1.90;1.63;;;9.50;99.90;;;;;;5034638;28;20467;-58
2021/11/02 16:21:09;;;;;;;2.23;1.37;;;9.50;99.90;;;;;;5027929;28;20495;-58
2021/11/02 16:23:42;;;;;;;1.67;1.50;;;9.50;99.90;;;;;;5014282;28;20424;-58
2021/11/02 16:26:15;;;;;;;3.73;1.40;;;9.50;99.90;;;;;;5014146;28;20831;-58
2021/11/02 16:28:42;;;;;;;1.40;1.30;;;9.50;99.90;;;;;;5050622;28;20538;-58
2021/11/02 16:31:19;;;;;;;2.10;1.80;;;9.50;99.90;;;;;;5034857;28;20470;-58
2021/11/02 16:33:47;;;;;;;2.30;1.30;;;9.50;99.90;;;;;;5051596;28;20462;-58
2021/11/02 16:36:28;;;;;;;2.63;1.73;;;9.50;99.90;;;;;;5023275;28;20472;-58
2021/11/02 16:38:59;;;;;;;2.57;1.23;;;9.40;99.90;;;;;;5011946;28;20456;-58
2021/11/02 16:41:39;;;;;;;4.27;1.37;;;9.40;99.90;;;;;;5011469;28;20819;-58
2021/11/02 16:44:13;;;;;;;1.73;1.40;;;9.40;99.90;;;;;;5011937;28;20435;-58
2021/11/02 16:46:44;;;;;;;1.20;1.10;;;9.40;99.90;;;;;;5029149;28;20991;-58
2021/11/02 16:49:21;;;;;;;2.33;2.20;;;9.40;99.90;;;;;;5037798;28;20427;-58
2021/11/02 16:51:52;;;;;;;2.10;1.07;;;9.30;99.90;;;;;;5013736;28;20479;-58
2021/11/02 16:54:30;;;;;;;3.23;1.80;;;9.30;99.90;;;;;;5012085;28;20516;-58
2021/11/02 16:57:16;;;;;;;1.60;1.30;;;9.30;99.90;;;;;;5011243;28;20985;-58
2021/11/02 16:59:53;;;;;;;1.10;1.00;;;9.30;99.90;;;;;;5011832;28;20838;-58
2021/11/02 17:02:35;;;;;;;3.00;1.17;;;9.20;99.90;;;;;;5013792;28;20574;-58
2021/11/02 17:05:20;;;;;;;1.60;1.00;;;9.10;99.90;;;;;;5015339;28;20449;-58
2021/11/02 17:08:04;;;;;;;1.60;1.17;;;9.10;99.90;;;;;;5014956;28;20523;-58
2021/11/02 17:10:34;;;;;;;1.87;0.90;;;9.10;99.90;;;;;;5014846;28;20421;-58
2021/11/02 17:13:13;;;;;;;1.60;1.07;;;9.00;99.90;;;;;;5015529;28;20424;-58
2021/11/02 17:15:49;;;;;;;2.60;1.30;;;9.00;99.90;;;;;;5014688;28;20468;-58
2021/11/02 17:18:19;;;;;;;3.00;1.30;;;9.00;99.90;;;;;;5015020;28;20459;-58
2021/11/02 17:21:20;;;;;;;1.30;1.13;;;9.00;99.90;;;;;;5014588;28;20562;-58
2021/11/02 17:23:50;;;;;;;2.00;1.10;;;8.90;99.90;;;;;;4973905;28;20521;-58
2021/11/02 17:26:21;;;;;;;1.63;0.93;;;8.90;99.90;;;;;;5036229;28;20459;-58
2021/11/02 17:28:50;;;;;;;2.50;1.20;;;8.80;99.90;;;;;;5037987;28;20445;-58
2021/11/02 17:31:19;;;;;;;2.33;1.47;;;8.80;99.90;;;;;;5029433;28;20472;-58
2021/11/02 17:33:47;;;;;;;1.25;1.08;;;8.80;99.90;;;;;;5054391;28;20427;-58
2021/11/02 17:36:17;;;;;;;1.37;1.20;;;8.70;99.90;;;;;;5046700;28;20228;-58
2021/11/02 17:38:49;;;;;;;1.40;0.90;;;8.80;99.90;;;;;;5036570;28;20490;-58
2021/11/02 17:41:16;;;;;;;5.90;1.27;;;8.70;99.90;;;;;;5049679;28;20469;-59
2021/11/02 17:43:46;;;;;;;1.67;1.40;;;8.70;99.90;;;;;;5054110;28;20458;-58
2021/11/02 17:46:15;;;;;;;1.90;1.40;;;8.70;99.90;;;;;;5021284;28;20467;-58
2021/11/02 17:48:42;;;;;;;1.40;1.20;;;8.60;99.90;;;;;;5014552;28;20522;-58
2021/11/02 17:51:09;;;;;;;1.63;1.40;;;8.60;99.90;;;;;;5014141;28;20235;-58
2021/11/02 17:53:37;;;;;;;3.00;1.77;;;8.50;99.90;;;;;;5032767;28;20492;-58
2021/11/02 17:56:11;;;;;;;1.60;1.50;;;8.50;99.90;;;;;;5037619;28;20463;-58
2021/11/02 17:58:39;;;;;;;1.85;1.13;;;8.50;99.90;;;;;;5042821;28;20476;-58
2021/11/02 18:01:07;;;;;;;4.47;1.50;;;8.50;99.90;;;;;;5034811;28;20222;-58
2021/11/02 18:03:37;;;;;;;1.80;1.55;;;8.40;99.90;;;;;;5047045;28;20476;-58
2021/11/02 18:06:06;;;;;;;2.63;1.45;;;8.40;99.90;;;;;;5021125;28;20318;-58
2021/11/02 18:08:35;;;;;;;1.30;1.20;;;8.30;99.90;;;;;;5012999;28;20226;-58
2021/11/02 18:11:03;;;;;;;1.47;0.90;;;8.30;99.90;;;;;;5013920;28;20846;-58
2021/11/02 18:13:32;;;;;;;2.70;1.00;;;8.30;99.90;;;;;;5037970;28;20531;-58
2021/11/02 18:16:03;;;;;;;1.80;1.50;;;8.30;99.90;;;;;;5025257;28;20462;-58
2021/11/02 18:18:37;;;;;;;1.17;1.00;;;8.30;99.90;;;;;;5013892;28;20600;-58
2021/11/02 18:21:08;;;;;;;2.00;0.70;;;8.30;99.90;;;;;;5013484;28;20219;-58
2021/11/02 18:23:36;;;;;;;1.38;0.88;;;8.30;99.90;;;;;;5018320;28;20365;-58
2021/11/02 18:26:03;;;;;;;1.60;0.85;;;8.20;99.90;;;;;;5037061;28;20285;-58
2021/11/02 18:28:31;;;;;;;1.60;1.40;;;8.20;99.90;;;;;;5051867;28;20579;-58